Val-d'Or Airport
CYVO : now visible

Airfield :











YOU CAN JOIN US ON...

 
LOGIN :

Register | Disclaimer

   EN    FR    IT 

 









Legend :    VFR   Marginal VFR   IFR   Intensive IFR   Very Intensive IFR
Visi :
Ceiling :
>= 8 km
>= 3000ft
5 to 8 km
1000 to 3000 ft
1500m to 5 km
500 to 1000 ft
800 to 1500m
200 to 500 ft
< 800m
< 200 ft
Symbols :   Thunderstorms  Fog  Heavy snow  Heavy precipitations  Wind > 20 kt






- Airport Elevation : 1107 ft
- IATA code : YVO


CYVO - Val-d'Or

CURRENT METAR :
  • 282300Z 34007KT 8SM -SN OVC011 M12/M13 A3001 RMK SC8 SLP195

EXPIRED METARs :
  • 282100Z 32005KT 10SM -SN OVC013 M11/M13 A2997 RMK SC8 SLP181

TAF AMD TAF CYVO
Valid from the 28 at 22:00 until the 29 at 06:00 UTC


282257Z 2822/2906 34005KT P6SM -SN OVC012
TEMPO 2822/2903 P6SM NSW BKN015
FM290300 36005KT P6SM OVC012
TEMPO 2903/2906 5SM -SN OVC008 RMK NXT FCST BY 290000Z



MET'MAP, your aeronautical weather chart ! - Copyright ORBIFLY December 2007 - Disclaimer

ORBIFLY MET'MAP TEAM :

Programming & Development : Alexandra Zaïnal
Concept & original design : Baudouin d'Aumeries
Assistance for programming : Marc-Olivier Méhu
Technical & hardware support : Manuel Goepfert

Contact : metmap@orbifly.com




SOURCES & CREDITS :

   NOAA       Earth
Advisory